createdAt,value
2022-09-23T00:01:48.036Z,98747.81
2022-09-23T00:04:17.368Z,98753.97
2022-09-23T00:06:46.569Z,98748.59
2022-09-23T00:09:15.753Z,98737.56
2022-09-23T00:11:44.985Z,98739.66
2022-09-23T00:14:14.385Z,98741.44
2022-09-23T00:16:43.668Z,98750.50
2022-09-23T00:19:12.974Z,98740.94
2022-09-23T00:21:42.736Z,98738.88
2022-09-23T00:24:11.975Z,98730.56
2022-09-23T00:26:41.442Z,98733.66
2022-09-23T00:29:11.219Z,98733.44
2022-09-23T00:31:40.417Z,98734.41
2022-09-23T00:34:11.532Z,98749.47
2022-09-23T00:36:40.937Z,98736.97
2022-09-23T00:39:10.174Z,98729.19
2022-09-23T00:41:39.885Z,98724.50
2022-09-23T00:44:42.589Z,98727.09
2022-09-23T00:47:34.390Z,98729.31
2022-09-23T00:50:22.596Z,98726.38
2022-09-23T00:52:56.692Z,98726.22
2022-09-23T00:55:33.505Z,98727.31
2022-09-23T00:58:07.062Z,98724.41
2022-09-23T01:00:36.686Z,98729.69
2022-09-23T01:03:07.522Z,98723.50
2022-09-23T01:05:37.103Z,98720.53
2022-09-23T01:08:09.676Z,98727.34
2022-09-23T01:10:52.905Z,98733.47
2022-09-23T01:13:52.169Z,98733.47
2022-09-23T01:16:52.804Z,98725.22
2022-09-23T01:19:36.877Z,98730.22
2022-09-23T01:22:41.393Z,98728.91
2022-09-23T01:25:45.030Z,98732.16
2022-09-23T01:28:44.099Z,98727.00
2022-09-23T01:31:29.873Z,98723.88
2022-09-23T01:34:46.118Z,98728.09
2022-09-23T01:37:29.539Z,98730.16
2022-09-23T01:40:17.941Z,98727.25
2022-09-23T01:43:16.152Z,98727.25
2022-09-23T01:45:56.405Z,98729.16
2022-09-23T01:48:34.879Z,98721.88
2022-09-23T01:51:14.837Z,98724.31
2022-09-23T01:54:12.196Z,98721.88
2022-09-23T01:57:03.788Z,98719.44
2022-09-23T01:59:43.159Z,98721.88
2022-09-23T02:02:29.706Z,98714.91
2022-09-23T02:05:18.400Z,98720.72
2022-09-23T02:07:59.940Z,98713.63
2022-09-23T02:10:41.086Z,98713.50
2022-09-23T02:13:20.674Z,98712.81
2022-09-23T02:16:01.256Z,98715.25
2022-09-23T02:18:54.896Z,98721.91
2022-09-23T02:21:33.951Z,98720.63
2022-09-23T02:24:20.965Z,98723.59
2022-09-23T02:27:12.535Z,98715.50
2022-09-23T02:29:51.292Z,98715.06
2022-09-23T02:32:33.605Z,98723.50
2022-09-23T02:35:20.125Z,98724.50
2022-09-23T02:38:12.184Z,98720.63
2022-09-23T02:41:05.065Z,98720.19
2022-09-23T02:43:52.023Z,98721.94
2022-09-23T02:46:23.239Z,98721.94
2022-09-23T02:49:04.244Z,98725.22
2022-09-23T02:51:38.249Z,98725.69
2022-09-23T02:54:14.665Z,98722.66
2022-09-23T02:56:44.377Z,98723.47
2022-09-23T02:59:13.803Z,98734.31
2022-09-23T03:02:30.583Z,98737.88
2022-09-23T03:05:23.987Z,98735.41
2022-09-23T03:08:12.978Z,98730.41
2022-09-23T03:10:54.328Z,98725.88
2022-09-23T03:13:51.337Z,98734.31
2022-09-23T03:16:48.261Z,98734.00
2022-09-23T03:19:33.977Z,98728.84
2022-09-23T03:22:22.125Z,98732.38
2022-09-23T03:24:54.228Z,98728.31
2022-09-23T03:27:29.161Z,98729.47
2022-09-23T03:30:00.590Z,98723.63
2022-09-23T03:32:32.124Z,98718.06
2022-09-23T03:35:04.634Z,98723.56
2022-09-23T03:38:07.387Z,98721.28
2022-09-23T03:40:43.651Z,98718.31
2022-09-23T03:43:13.962Z,98716.31
2022-09-23T03:45:43.369Z,98711.97
2022-09-23T03:48:15.735Z,98711.81
2022-09-23T03:50:44.964Z,98713.44
2022-09-23T03:53:14.353Z,98712.91
2022-09-23T03:55:43.882Z,98702.75
2022-09-23T03:58:13.623Z,98709.88
2022-09-23T04:00:44.325Z,98704.25
2022-09-23T04:03:14.095Z,98708.47
2022-09-23T04:05:45.237Z,98698.81
2022-09-23T04:08:14.506Z,98710.00
2022-09-23T04:10:43.712Z,98694.19
2022-09-23T04:13:12.899Z,98699.19
2022-09-23T04:15:42.141Z,98698.22
2022-09-23T04:18:11.360Z,98700.16
2022-09-23T04:20:40.530Z,98703.88
2022-09-23T04:23:09.796Z,98704.16
2022-09-23T04:25:49.187Z,98710.16
2022-09-23T04:28:18.463Z,98707.72
2022-09-23T04:30:48.955Z,98712.59
2022-09-23T04:33:18.253Z,98704.78
2022-09-23T04:35:52.242Z,98710.41
2022-09-23T04:38:22.106Z,98713.81
2022-09-23T04:40:51.561Z,98715.16
2022-09-23T04:43:23.490Z,98705.31
2022-09-23T04:46:05.346Z,98712.91
2022-09-23T04:48:37.431Z,98718.25
2022-09-23T04:51:14.203Z,98713.41
2022-09-23T04:53:46.816Z,98714.56
2022-09-23T04:56:22.860Z,98711.38
2022-09-23T04:58:52.985Z,98718.50
2022-09-23T05:01:26.801Z,98718.22
2022-09-23T05:04:02.574Z,98715.63
2022-09-23T05:06:37.190Z,98721.09
2022-09-23T05:09:08.609Z,98718.34
2022-09-23T05:11:38.057Z,98725.97
2022-09-23T05:14:07.351Z,98725.47
2022-09-23T05:16:36.641Z,98732.56
2022-09-23T05:19:06.147Z,98735.50
2022-09-23T05:21:36.609Z,98732.03
2022-09-23T05:24:06.056Z,98739.16
2022-09-23T05:26:35.302Z,98748.50
2022-09-23T05:29:04.695Z,98747.22
2022-09-23T05:31:33.972Z,98743.00
2022-09-23T05:34:05.784Z,98749.94
2022-09-23T05:36:38.916Z,98749.81
2022-09-23T05:39:09.004Z,98751.56
2022-09-23T05:41:38.966Z,98748.19
2022-09-23T05:44:08.481Z,98750.16
2022-09-23T05:46:38.248Z,98749.34
2022-09-23T05:49:08.153Z,98755.06
2022-09-23T05:51:38.033Z,98753.78
2022-09-23T05:54:08.419Z,98758.34
2022-09-23T05:56:38.187Z,98749.09
2022-09-23T05:59:07.509Z,98750.59
2022-09-23T06:01:38.674Z,98749.91
2022-09-23T06:04:13.116Z,98751.88
2022-09-23T06:06:43.270Z,98754.13
2022-09-23T06:09:15.182Z,98751.06
2022-09-23T06:11:44.428Z,98750.13
2022-09-23T06:14:15.065Z,98753.88
2022-09-23T06:16:44.958Z,98749.50
2022-09-23T06:19:14.187Z,98743.50
2022-09-23T06:21:43.438Z,98744.19
2022-09-23T06:24:17.500Z,98745.50
2022-09-23T06:26:48.360Z,98748.81
2022-09-23T06:29:18.447Z,98746.94
2022-09-23T06:31:50.379Z,98745.16
2022-09-23T06:34:20.115Z,98747.75
2022-09-23T06:36:51.623Z,98746.63
2022-09-23T06:39:20.908Z,98740.78
2022-09-23T06:41:50.312Z,98747.28
2022-09-23T06:44:19.562Z,98745.34
2022-09-23T06:46:50.841Z,98750.69
2022-09-23T06:49:22.735Z,98750.19
2022-09-23T06:51:52.062Z,98749.53
2022-09-23T06:54:21.297Z,98750.34
2022-09-23T06:56:50.529Z,98749.53
2022-09-23T06:59:20.103Z,98756.03
2022-09-23T07:01:50.711Z,98762.69
2022-09-23T07:04:20.050Z,98765.13
2022-09-23T07:06:49.275Z,98758.13
2022-09-23T07:09:18.606Z,98763.50
2022-09-23T07:11:48.612Z,98752.78
2022-09-23T07:14:17.836Z,98763.97
2022-09-23T07:16:49.586Z,98758.16
2022-09-23T07:19:19.032Z,98761.22
2022-09-23T07:21:48.276Z,98759.09
2022-09-23T07:24:18.075Z,98763.78
2022-09-23T07:26:47.304Z,98750.66
2022-09-23T07:29:16.532Z,98738.16
2022-09-23T07:31:45.834Z,98749.72
2022-09-23T07:34:15.143Z,98755.72
2022-09-23T07:36:44.450Z,98750.66
2022-09-23T07:39:13.998Z,98745.34
2022-09-23T07:41:44.508Z,98736.69
2022-09-23T07:44:14.091Z,98735.09
2022-09-23T07:46:44.254Z,98742.81
2022-09-23T07:49:13.680Z,98746.53
2022-09-23T07:51:46.499Z,98744.91
2022-09-23T07:54:18.354Z,98740.47
2022-09-23T07:56:47.969Z,98737.31
2022-09-23T07:59:18.825Z,98721.63
2022-09-23T08:01:52.734Z,98726.63
2022-09-23T08:04:33.166Z,98721.19
2022-09-23T08:07:05.400Z,98723.28
2022-09-23T08:09:41.420Z,98728.00
2022-09-23T08:12:16.387Z,98729.94
2022-09-23T08:14:45.948Z,98728.03
2022-09-23T08:17:15.241Z,98730.13
2022-09-23T08:19:44.502Z,98724.19
2022-09-23T08:22:13.888Z,98717.84
2022-09-23T08:24:43.103Z,98720.72
2022-09-23T08:27:12.740Z,98709.34
2022-09-23T08:29:41.974Z,98708.03
2022-09-23T08:32:11.228Z,98700.06
2022-09-23T08:34:40.474Z,98700.56
2022-09-23T08:37:11.308Z,98700.03
2022-09-23T08:39:40.743Z,98697.25
2022-09-23T08:42:27.721Z,98693.03
2022-09-23T08:45:02.692Z,98685.75
2022-09-23T08:48:02.217Z,98683.72
2022-09-23T08:50:43.841Z,98677.59
2022-09-23T08:53:35.655Z,98677.16
2022-09-23T08:56:19.394Z,98660.75
2022-09-23T08:59:24.214Z,98662.97
2022-09-23T09:02:05.697Z,98663.16
2022-09-23T09:04:44.668Z,98662.97
2022-09-23T09:07:37.887Z,98650.03
2022-09-23T09:10:16.786Z,98650.38
2022-09-23T09:13:00.229Z,98646.31
2022-09-23T09:15:29.816Z,98639.22
2022-09-23T09:18:14.240Z,98634.97
2022-09-23T09:21:09.324Z,98636.22
2022-09-23T09:24:00.278Z,98630.97
2022-09-23T09:26:34.213Z,98633.97
2022-09-23T09:29:31.291Z,98628.09
2022-09-23T09:32:47.397Z,98620.31
2022-09-23T09:35:50.486Z,98624.88
2022-09-23T09:38:22.042Z,98621.41
2022-09-23T09:40:51.398Z,98622.59
2022-09-23T09:43:23.630Z,98619.91
2022-09-23T09:45:59.203Z,98611.97
2022-09-23T09:48:50.326Z,98604.53
2022-09-23T09:51:28.425Z,98608.66
2022-09-23T09:54:23.194Z,98608.66
2022-09-23T09:56:53.536Z,98613.69
2022-09-23T09:59:28.762Z,98605.78
2022-09-23T10:02:37.005Z,98604.69
2022-09-23T10:05:23.187Z,98600.16
2022-09-23T10:07:53.022Z,98590.19
2022-09-23T10:10:33.785Z,98588.19
2022-09-23T10:13:16.241Z,98582.19
2022-09-23T10:15:45.749Z,98584.34
2022-09-23T10:18:48.138Z,98578.56
2022-09-23T10:21:27.499Z,98581.22
2022-09-23T10:24:00.946Z,98582.13
2022-09-23T10:26:44.900Z,98575.59
2022-09-23T10:29:33.583Z,98569.56
2022-09-23T10:32:28.203Z,98567.56
2022-09-23T10:35:09.785Z,98568.97
2022-09-23T10:37:48.284Z,98559.47
2022-09-23T10:41:02.446Z,98562.09
2022-09-23T10:44:11.576Z,98561.06
2022-09-23T10:47:14.633Z,98562.09
2022-09-23T10:50:03.363Z,98557.50
2022-09-23T10:52:55.346Z,98549.09
2022-09-23T10:55:58.346Z,98555.59
2022-09-23T10:58:50.613Z,98557.81
2022-09-23T11:01:51.358Z,98557.03
2022-09-23T11:04:51.091Z,98544.13
2022-09-23T11:07:37.275Z,98545.88
2022-09-23T11:10:46.094Z,98538.97
2022-09-23T11:13:24.602Z,98541.47
2022-09-23T11:16:36.287Z,98529.28
2022-09-23T11:19:22.213Z,98522.94
2022-09-23T11:22:05.027Z,98520.75
2022-09-23T11:24:52.188Z,98511.94
2022-09-23T11:27:58.812Z,98509.25
2022-09-23T11:30:45.459Z,98514.28
2022-09-23T11:33:37.712Z,98512.91
2022-09-23T11:36:17.871Z,98510.84
2022-09-23T11:38:52.292Z,98502.41
2022-09-23T11:41:32.839Z,98503.31
2022-09-23T11:44:31.323Z,98494.44
2022-09-23T11:47:09.363Z,98492.44
2022-09-23T11:49:43.307Z,98494.06
2022-09-23T11:52:21.550Z,98490.03
2022-09-23T11:55:34.319Z,98490.47
2022-09-23T11:58:25.790Z,98487.72
2022-09-23T12:01:07.307Z,98477.19
2022-09-23T12:04:17.108Z,98486.50
2022-09-23T12:06:59.873Z,98490.13
2022-09-23T12:09:58.181Z,98486.41
2022-09-23T12:12:42.804Z,98483.50
2022-09-23T12:15:41.745Z,98479.50
2022-09-23T12:18:49.019Z,98487.38
2022-09-23T12:22:08.136Z,98482.91
2022-09-23T12:25:17.366Z,98477.63
2022-09-23T12:27:53.114Z,98475.22
2022-09-23T12:30:31.190Z,98481.00
2022-09-23T12:33:18.383Z,98478.59
2022-09-23T12:35:48.432Z,98471.13
2022-09-23T12:38:25.336Z,98468.91
2022-09-23T12:40:56.281Z,98467.94
2022-09-23T12:43:31.319Z,98460.25
2022-09-23T12:46:18.406Z,98456.56
2022-09-23T12:49:01.006Z,98445.13
2022-09-23T12:51:34.711Z,98455.94
2022-09-23T12:54:03.880Z,98457.00
2022-09-23T12:56:39.060Z,98451.16
2022-09-23T12:59:30.045Z,98443.72
2022-09-23T13:02:34.242Z,98437.88
2022-09-23T13:05:37.501Z,98443.66
2022-09-23T13:08:20.772Z,98448.88
2022-09-23T13:10:55.796Z,98444.53
2022-09-23T13:13:42.846Z,98449.69
2022-09-23T13:16:14.064Z,98452.84
2022-09-23T13:18:57.228Z,98446.31
2022-09-23T13:21:45.772Z,98438.56
2022-09-23T13:24:29.939Z,98440.28
2022-09-23T13:27:02.254Z,98447.50
2022-09-23T13:29:45.393Z,98440.84
2022-09-23T13:32:17.956Z,98443.88
2022-09-23T13:35:00.754Z,98446.34
2022-09-23T13:37:50.652Z,98444.88
2022-09-23T13:40:27.223Z,98430.16
2022-09-23T13:42:57.032Z,98434.97
2022-09-23T13:45:28.970Z,98425.00
2022-09-23T13:48:11.670Z,98430.25
2022-09-23T13:50:49.165Z,98429.69
2022-09-23T13:53:29.698Z,98429.81
2022-09-23T13:56:11.683Z,98419.34
2022-09-23T13:58:41.449Z,98427.22
2022-09-23T14:01:34.039Z,98428.06
2022-09-23T14:04:03.357Z,98420.34
2022-09-23T14:06:37.838Z,98427.09
2022-09-23T14:09:07.173Z,98429.09
2022-09-23T14:11:37.260Z,98432.63
2022-09-23T14:14:07.647Z,98425.91
2022-09-23T14:16:41.704Z,98422.06
2022-09-23T14:19:22.262Z,98419.91
2022-09-23T14:21:54.462Z,98410.38
2022-09-23T14:24:31.795Z,98406.44
2022-09-23T14:27:06.948Z,98406.22
2022-09-23T14:29:40.351Z,98406.91
2022-09-23T14:32:18.909Z,98401.78
2022-09-23T14:35:00.703Z,98403.56
2022-09-23T14:37:59.450Z,98395.66
2022-09-23T14:40:41.383Z,98404.84
2022-09-23T14:43:25.733Z,98399.38
2022-09-23T14:45:58.733Z,98404.13
2022-09-23T14:48:35.109Z,98386.59
2022-09-23T14:51:13.234Z,98388.44
2022-09-23T14:53:47.026Z,98394.00
2022-09-23T14:56:20.422Z,98387.63
2022-09-23T14:58:55.168Z,98387.72
2022-09-23T15:01:27.921Z,98382.72
2022-09-23T15:04:14.179Z,98379.41
2022-09-23T15:06:58.381Z,98388.56
2022-09-23T15:09:39.598Z,98390.78
2022-09-23T15:12:21.299Z,98383.72
2022-09-23T15:14:56.685Z,98383.03
2022-09-23T15:17:33.062Z,98386.34
2022-09-23T15:20:23.004Z,98383.19
2022-09-23T15:22:55.776Z,98385.53
2022-09-23T15:25:40.126Z,98386.97
2022-09-23T15:28:12.228Z,98378.03
2022-09-23T15:30:41.589Z,98377.25
2022-09-23T15:33:17.846Z,98381.84
2022-09-23T15:35:49.297Z,98381.63
2022-09-23T15:38:18.628Z,98384.63
2022-09-23T15:40:49.214Z,98378.59
2022-09-23T15:43:27.030Z,98385.31
2022-09-23T15:46:02.891Z,98382.72
2022-09-23T15:48:43.354Z,98375.41
2022-09-23T15:51:15.443Z,98383.94
2022-09-23T15:53:44.697Z,98374.47
2022-09-23T15:56:14.035Z,98375.38
2022-09-23T15:58:43.476Z,98373.59
2022-09-23T16:01:31.388Z,98380.25
2022-09-23T16:04:01.591Z,98382.69
2022-09-23T16:06:32.263Z,98378.63
2022-09-23T16:09:01.801Z,98383.22
2022-09-23T16:11:32.881Z,98384.59
2022-09-23T16:14:02.163Z,98382.53
2022-09-23T16:16:31.448Z,98381.84
2022-09-23T16:19:00.744Z,98388.63
2022-09-23T16:21:30.161Z,98392.59
2022-09-23T16:23:59.692Z,98396.22
2022-09-23T16:26:34.717Z,98394.03
2022-09-23T16:29:04.134Z,98395.28
2022-09-23T16:31:33.504Z,98391.63
2022-09-23T16:34:02.737Z,98389.38
2022-09-23T16:36:35.984Z,98394.81
2022-09-23T16:39:10.169Z,98392.44
2022-09-23T16:41:41.157Z,98399.91
2022-09-23T16:44:12.510Z,98399.66
2022-09-23T16:46:43.066Z,98397.38
2022-09-23T16:49:12.427Z,98406.19
2022-09-23T16:51:41.962Z,98396.84
2022-09-23T16:54:12.814Z,98403.09
2022-09-23T16:56:46.832Z,98404.84
2022-09-23T16:59:16.773Z,98402.09
2022-09-23T17:02:04.529Z,98400.00
2022-09-23T17:04:33.854Z,98408.38
2022-09-23T17:07:03.097Z,98412.50
2022-09-23T17:09:34.964Z,98397.69
2022-09-23T17:12:22.210Z,98410.41
2022-09-23T17:14:53.136Z,98404.63
2022-09-23T17:17:22.422Z,98399.84
2022-09-23T17:19:51.619Z,98415.16
2022-09-23T17:22:20.850Z,98417.59
2022-09-23T17:24:50.204Z,98419.63
2022-09-23T17:27:19.578Z,98422.44
2022-09-23T17:29:48.762Z,98418.03
2022-09-23T17:32:18.113Z,98418.81
2022-09-23T17:34:47.314Z,98421.25
2022-09-23T17:37:16.918Z,98416.59
2022-09-23T17:39:46.377Z,98422.66
2022-09-23T17:42:15.730Z,98425.06
2022-09-23T17:44:45.935Z,98428.88
2022-09-23T17:47:15.351Z,98430.91
2022-09-23T17:49:47.004Z,98434.94
2022-09-23T17:52:20.343Z,98434.75
2022-09-23T17:54:49.656Z,98434.53
2022-09-23T17:57:18.860Z,98435.72
2022-09-23T17:59:50.813Z,98430.28
2022-09-23T18:02:22.555Z,98438.94
2022-09-23T18:04:51.913Z,98442.09
2022-09-23T18:07:21.093Z,98446.50
2022-09-23T18:09:50.313Z,98450.50
2022-09-23T18:12:19.590Z,98444.78
2022-09-23T18:14:48.893Z,98447.13
2022-09-23T18:17:18.177Z,98454.75
2022-09-23T18:19:49.271Z,98453.69
2022-09-23T18:22:18.559Z,98455.09
2022-09-23T18:24:47.769Z,98459.03
2022-09-23T18:27:16.975Z,98455.41
2022-09-23T18:29:46.270Z,98450.53
2022-09-23T18:32:15.651Z,98473.75
2022-09-23T18:34:44.964Z,98455.84
2022-09-23T18:37:16.032Z,98460.44
2022-09-23T18:39:45.711Z,98459.19
2022-09-23T18:42:14.984Z,98462.38
2022-09-23T18:44:44.205Z,98464.72
2022-09-23T18:47:33.443Z,98473.50
2022-09-23T18:50:21.568Z,98463.38
2022-09-23T18:52:50.803Z,98470.63
2022-09-23T18:55:19.988Z,98472.34
2022-09-23T18:57:49.256Z,98472.47
2022-09-23T19:00:19.788Z,98474.22
2022-09-23T19:02:49.036Z,98467.94
2022-09-23T19:05:19.116Z,98469.88
2022-09-23T19:07:48.397Z,98474.22
2022-09-23T19:10:19.245Z,98478.16
2022-09-23T19:12:48.888Z,98471.72
2022-09-23T19:15:18.073Z,98470.47
2022-09-23T19:17:47.366Z,98486.09
2022-09-23T19:20:16.910Z,98491.22
2022-09-23T19:22:47.568Z,98487.94
2022-09-23T19:25:17.538Z,98488.28
2022-09-23T19:27:46.810Z,98490.97
2022-09-23T19:30:16.173Z,98494.13
2022-09-23T19:32:45.897Z,98483.25
2022-09-23T19:35:16.120Z,98496.03
2022-09-23T19:37:49.338Z,98489.81
2022-09-23T19:40:18.673Z,98485.69
2022-09-23T19:42:47.999Z,98495.38
2022-09-23T19:45:17.350Z,98483.19
2022-09-23T19:47:46.750Z,98488.09
2022-09-23T19:50:16.220Z,98491.41
2022-09-23T19:52:45.533Z,98487.75
2022-09-23T19:55:14.930Z,98496.69
2022-09-23T19:57:44.473Z,98493.44
2022-09-23T20:00:15.478Z,98497.22
2022-09-23T20:02:44.696Z,98495.16
2022-09-23T20:05:17.303Z,98499.72
2022-09-23T20:07:49.198Z,98504.28
2022-09-23T20:10:18.799Z,98497.47
2022-09-23T20:12:48.717Z,98499.44
2022-09-23T20:15:18.555Z,98499.78
2022-09-23T20:17:47.800Z,98495.94
2022-09-23T20:20:17.217Z,98493.22
2022-09-23T20:22:48.162Z,98495.69
2022-09-23T20:25:17.733Z,98496.75
2022-09-23T20:27:52.630Z,98500.31
2022-09-23T20:30:21.892Z,98503.63
2022-09-23T20:32:51.152Z,98496.19
2022-09-23T20:35:20.369Z,98502.53
2022-09-23T20:37:49.613Z,98497.03
2022-09-23T20:40:19.187Z,98503.41
2022-09-23T20:42:48.970Z,98507.94
2022-09-23T20:45:18.271Z,98511.84
2022-09-23T20:47:47.491Z,98510.59
2022-09-23T20:50:17.103Z,98504.13
2022-09-23T20:52:46.339Z,98506.56
2022-09-23T20:55:16.230Z,98507.38
2022-09-23T20:57:48.706Z,98508.69
2022-09-23T21:00:18.529Z,98506.78
2022-09-23T21:02:47.728Z,98505.34
2022-09-23T21:05:18.264Z,98504.69
2022-09-23T21:07:47.828Z,98507.78
2022-09-23T21:10:17.013Z,98505.25
2022-09-23T21:12:50.454Z,98509.50
2022-09-23T21:15:19.904Z,98515.38
2022-09-23T21:17:49.081Z,98509.88
2022-09-23T21:20:18.341Z,98506.00
2022-09-23T21:22:50.281Z,98507.31
2022-09-23T21:25:28.401Z,98510.06
2022-09-23T21:28:01.886Z,98499.72
2022-09-23T21:30:31.167Z,98513.03
2022-09-23T21:33:01.927Z,98510.91
2022-09-23T21:35:31.291Z,98522.91
2022-09-23T21:38:00.880Z,98516.72
2022-09-23T21:40:48.364Z,98514.66
2022-09-23T21:43:17.684Z,98510.78
2022-09-23T21:45:47.491Z,98513.88
2022-09-23T21:48:16.701Z,98513.88
2022-09-23T21:50:55.929Z,98512.41
2022-09-23T21:53:26.366Z,98512.72
2022-09-23T21:56:03.614Z,98514.88
2022-09-23T21:58:34.596Z,98514.22
2022-09-23T22:01:18.860Z,98520.06
2022-09-23T22:03:55.426Z,98523.78
2022-09-23T22:06:30.684Z,98525.88
2022-09-23T22:09:04.272Z,98524.09
2022-09-23T22:11:52.378Z,98519.75
2022-09-23T22:14:26.466Z,98518.63
2022-09-23T22:16:59.233Z,98525.44
2022-09-23T22:19:44.279Z,98517.97
2022-09-23T22:22:18.053Z,98528.34
2022-09-23T22:24:48.338Z,98527.69
2022-09-23T22:27:19.833Z,98531.25
2022-09-23T22:30:07.477Z,98523.97
2022-09-23T22:32:43.695Z,98524.28
2022-09-23T22:35:17.926Z,98534.19
2022-09-23T22:37:48.013Z,98520.44
2022-09-23T22:40:17.553Z,98521.56
2022-09-23T22:42:48.546Z,98528.69
2022-09-23T22:45:17.878Z,98525.44
2022-09-23T22:47:47.110Z,98530.00
2022-09-23T22:50:16.503Z,98528.22
2022-09-23T22:52:45.806Z,98535.63
2022-09-23T22:55:15.095Z,98531.78
2022-09-23T22:57:44.271Z,98538.22
2022-09-23T23:00:14.395Z,98545.34
2022-09-23T23:02:43.616Z,98543.91
2022-09-23T23:05:14.541Z,98554.56
2022-09-23T23:07:43.897Z,98556.03
2022-09-23T23:10:17.238Z,98557.97
2022-09-23T23:12:47.493Z,98555.84
2022-09-23T23:15:16.833Z,98551.81
2022-09-23T23:17:46.017Z,98557.00
2022-09-23T23:20:15.336Z,98544.50
2022-09-23T23:22:44.543Z,98549.53
2022-09-23T23:25:13.834Z,98544.03
2022-09-23T23:27:43.095Z,98544.03
2022-09-23T23:30:13.007Z,98546.28
2022-09-23T23:32:42.271Z,98541.59
2022-09-23T23:35:11.491Z,98540.31
2022-09-23T23:37:40.817Z,98534.66
2022-09-23T23:40:10.797Z,98535.78
2022-09-23T23:42:40.092Z,98538.22
2022-09-23T23:45:09.728Z,98540.16
2022-09-23T23:47:40.037Z,98543.72
2022-09-23T23:50:09.817Z,98535.63
2022-09-23T23:52:39.071Z,98524.28
2022-09-23T23:55:08.794Z,98533.84
2022-09-23T23:57:38.032Z,98535.59
